createdAt,value
2022-12-15T00:03:48.239Z,87.67
2022-12-15T00:08:47.908Z,87.67
2022-12-15T00:13:48.081Z,89.62
2022-12-15T00:18:47.961Z,89.09
2022-12-15T00:23:48.050Z,89.38
2022-12-15T00:28:47.927Z,89.38
2022-12-15T00:33:48.017Z,89.09
2022-12-15T00:38:47.926Z,89.09
2022-12-15T00:43:47.987Z,88.80
2022-12-15T00:48:48.149Z,89.53
2022-12-15T00:53:47.959Z,89.53
2022-12-15T00:58:48.110Z,89.64
2022-12-15T01:03:48.035Z,90.60
2022-12-15T01:08:48.068Z,90.78
2022-12-15T01:13:49.585Z,90.90
2022-12-15T01:23:47.949Z,90.86
2022-12-15T01:28:48.006Z,90.87
2022-12-15T01:33:48.150Z,90.78
2022-12-15T01:38:53.722Z,90.36
2022-12-15T01:43:49.934Z,91.17
2022-12-15T01:48:47.973Z,90.33
2022-12-15T01:53:50.182Z,91.09
2022-12-15T01:58:47.959Z,90.21
2022-12-15T02:03:47.961Z,90.21
2022-12-15T02:08:47.971Z,91.57
2022-12-15T02:13:49.797Z,91.57
2022-12-15T02:18:47.979Z,90.70
2022-12-15T02:23:47.950Z,90.46
2022-12-15T02:28:47.978Z,91.25
2022-12-15T02:33:47.995Z,90.66
2022-12-15T02:38:48.287Z,90.54
2022-12-15T02:43:47.954Z,90.64
2022-12-15T02:48:48.102Z,91.29
2022-12-15T02:53:47.989Z,91.37
2022-12-15T02:58:48.045Z,91.43
2022-12-15T03:03:48.273Z,91.47
2022-12-15T03:13:49.872Z,92.27
2022-12-15T03:18:47.993Z,91.63
2022-12-15T03:23:48.108Z,91.92
2022-12-15T03:28:48.072Z,91.86
2022-12-15T03:33:48.096Z,92.56
2022-12-15T03:38:47.998Z,93.60
2022-12-15T03:43:49.679Z,93.06
2022-12-15T03:48:48.183Z,92.66
2022-12-15T03:53:48.006Z,92.22
2022-12-15T03:58:48.008Z,92.05
2022-12-15T04:03:48.167Z,91.42
2022-12-15T04:08:49.729Z,91.63
2022-12-15T04:13:47.989Z,91.68
2022-12-15T04:18:48.199Z,92.25
2022-12-15T04:23:48.003Z,92.53
2022-12-15T04:28:48.044Z,92.78
2022-12-15T04:33:48.003Z,92.63
2022-12-15T04:38:50.541Z,93.49
2022-12-15T04:43:48.203Z,93.35
2022-12-15T04:48:48.047Z,93.27
2022-12-15T04:53:48.000Z,93.79
2022-12-15T05:03:48.157Z,95.30
2022-12-15T05:08:50.005Z,95.30
2022-12-15T05:13:48.031Z,94.97
2022-12-15T05:18:48.055Z,96.10
2022-12-15T05:23:48.027Z,95.33
2022-12-15T05:28:48.029Z,95.49
2022-12-15T05:33:48.031Z,95.21
2022-12-15T05:38:48.040Z,95.61
2022-12-15T05:43:48.027Z,96.45
2022-12-15T05:48:48.186Z,95.78
2022-12-15T05:53:48.002Z,95.64
2022-12-15T05:58:48.258Z,95.75
2022-12-15T06:03:48.067Z,95.48
2022-12-15T06:08:50.047Z,95.88
2022-12-15T06:13:48.519Z,95.86
2022-12-15T06:18:49.912Z,95.86
2022-12-15T06:23:48.219Z,96.12
2022-12-15T06:28:48.040Z,95.64
2022-12-15T06:33:48.185Z,95.86
2022-12-15T06:38:49.862Z,96.19
2022-12-15T06:43:48.036Z,95.79
2022-12-15T06:48:48.089Z,95.79
2022-12-15T06:53:48.076Z,96.44
2022-12-15T06:58:48.263Z,96.58
2022-12-15T07:03:48.544Z,96.44
2022-12-15T07:08:48.068Z,96.44
2022-12-15T07:13:48.073Z,96.67
2022-12-15T07:18:48.079Z,96.49
2022-12-15T07:23:56.024Z,96.08
2022-12-15T07:28:48.080Z,96.13
2022-12-15T07:33:48.086Z,96.67
2022-12-15T07:38:50.604Z,95.91
2022-12-15T07:43:48.361Z,95.96
2022-12-15T07:48:50.486Z,96.44
2022-12-15T07:53:48.053Z,95.98
2022-12-15T07:58:48.110Z,96.13
2022-12-15T08:03:48.226Z,96.09
2022-12-15T08:08:50.424Z,95.84
2022-12-15T08:14:03.897Z,95.47
2022-12-15T08:18:48.092Z,95.65
2022-12-15T08:23:48.170Z,95.65
2022-12-15T08:28:48.098Z,95.97
2022-12-15T08:38:48.262Z,94.52
2022-12-15T08:43:49.221Z,94.56
2022-12-15T08:48:48.507Z,94.40
2022-12-15T08:53:48.711Z,94.40
2022-12-15T08:58:48.188Z,93.20
2022-12-15T09:03:48.105Z,92.50
2022-12-15T09:08:50.292Z,92.75
2022-12-15T09:13:48.125Z,93.19
2022-12-15T09:18:48.134Z,93.53
2022-12-15T09:23:48.300Z,92.59
2022-12-15T09:28:50.159Z,93.03
2022-12-15T09:33:48.124Z,92.26
2022-12-15T09:38:48.121Z,92.47
2022-12-15T09:43:48.273Z,92.14
2022-12-15T09:48:48.141Z,91.96
2022-12-15T09:53:55.580Z,91.04
2022-12-15T09:58:50.632Z,90.33
2022-12-15T10:03:48.204Z,90.50
2022-12-15T10:08:50.469Z,90.01
2022-12-15T10:13:48.146Z,89.84
2022-12-15T10:18:48.140Z,88.52
2022-12-15T10:23:48.169Z,90.37
2022-12-15T10:33:48.711Z,90.51
2022-12-15T10:38:50.595Z,90.85
2022-12-15T10:43:48.158Z,90.85
2022-12-15T10:48:48.776Z,91.81
2022-12-15T10:53:50.561Z,90.41
2022-12-15T10:58:50.209Z,90.41
2022-12-15T11:03:48.332Z,91.79
2022-12-15T11:08:48.154Z,92.47
2022-12-15T11:13:48.149Z,91.88
2022-12-15T11:18:48.638Z,91.88
2022-12-15T11:23:48.703Z,91.29
2022-12-15T11:28:48.184Z,91.34
2022-12-15T11:33:49.233Z,91.61
2022-12-15T11:38:48.268Z,91.56
2022-12-15T11:43:50.320Z,91.72
2022-12-15T11:48:48.849Z,91.02
2022-12-15T11:53:49.345Z,91.01
2022-12-15T11:58:48.639Z,90.39
2022-12-15T12:03:48.190Z,90.40
2022-12-15T12:08:48.274Z,90.54
2022-12-15T12:13:48.172Z,90.54
2022-12-15T12:18:50.373Z,90.39
2022-12-15T12:23:48.146Z,90.77
2022-12-15T12:28:48.907Z,91.24
2022-12-15T12:33:48.580Z,91.23
2022-12-15T12:38:50.468Z,91.50
2022-12-15T12:43:50.266Z,91.81
2022-12-15T12:58:48.549Z,92.59
2022-12-15T13:03:48.263Z,93.69
2022-12-15T13:08:51.020Z,93.82
2022-12-15T13:18:48.212Z,93.70
2022-12-15T13:23:50.354Z,94.59
2022-12-15T13:33:48.786Z,96.38
2022-12-15T13:38:48.210Z,96.38
2022-12-15T13:43:48.225Z,96.58
2022-12-15T13:53:49.729Z,97.60
2022-12-15T13:58:48.227Z,98.06
2022-12-15T14:03:48.503Z,98.98
2022-12-15T14:08:50.826Z,99.03
2022-12-15T14:13:52.335Z,99.47
2022-12-15T14:18:48.228Z,100.00
2022-12-15T14:24:36.308Z,100.00
2022-12-15T14:28:48.260Z,100.00
2022-12-15T14:33:50.765Z,100.00
2022-12-15T14:38:48.205Z,100.00
2022-12-15T14:43:48.275Z,100.00
2022-12-15T14:48:48.416Z,100.00
2022-12-15T14:53:48.222Z,100.00
2022-12-15T14:58:48.260Z,100.00
2022-12-15T15:03:05.231Z,93.59
2022-12-15T15:03:10.166Z,92.59
2022-12-15T15:03:12.901Z,92.03
2022-12-15T15:03:48.210Z,100.00
2022-12-15T15:08:48.357Z,100.00
2022-12-15T15:13:48.226Z,100.00
2022-12-15T15:18:48.267Z,100.00
2022-12-15T15:23:48.261Z,100.00
2022-12-15T15:28:48.267Z,100.00
2022-12-15T15:33:48.506Z,100.00
2022-12-15T15:38:48.217Z,100.00
2022-12-15T15:43:48.271Z,100.00
2022-12-15T15:48:48.296Z,100.00
2022-12-15T15:53:48.298Z,100.00
2022-12-15T15:58:48.264Z,100.00
2022-12-15T16:03:48.459Z,100.00
2022-12-15T16:08:48.224Z,100.00
2022-12-15T16:13:48.328Z,100.00
2022-12-15T16:18:48.267Z,100.00
2022-12-15T16:23:48.291Z,100.00
2022-12-15T16:28:48.371Z,100.00
2022-12-15T16:33:48.274Z,100.00
2022-12-15T16:38:48.271Z,100.00
2022-12-15T16:43:48.465Z,100.00
2022-12-15T16:48:48.501Z,100.00
2022-12-15T16:53:48.306Z,100.00
2022-12-15T16:58:49.036Z,100.00
2022-12-15T17:03:48.534Z,100.00
2022-12-15T17:08:48.263Z,100.00
2022-12-15T17:13:48.599Z,100.00
2022-12-15T17:18:48.322Z,100.00
2022-12-15T17:23:48.395Z,100.00
2022-12-15T17:33:48.427Z,100.00
2022-12-15T17:38:48.282Z,100.00
2022-12-15T17:44:04.298Z,100.00
2022-12-15T17:48:48.494Z,100.00
2022-12-15T17:53:48.296Z,100.00
2022-12-15T17:58:48.564Z,100.00
2022-12-15T18:03:48.620Z,100.00
2022-12-15T18:08:48.616Z,100.00
2022-12-15T18:13:48.325Z,100.00
2022-12-15T18:18:48.693Z,100.00
2022-12-15T18:23:48.548Z,100.00
2022-12-15T18:28:50.056Z,100.00
2022-12-15T18:33:48.556Z,100.00
2022-12-15T18:38:48.387Z,100.00
2022-12-15T18:43:48.384Z,100.00
2022-12-15T18:48:48.427Z,100.00
2022-12-15T18:53:48.559Z,100.00
2022-12-15T18:58:49.414Z,100.00
2022-12-15T19:03:48.363Z,100.00
2022-12-15T19:08:48.360Z,100.00
2022-12-15T19:18:48.670Z,100.00
2022-12-15T19:23:48.409Z,100.00
2022-12-15T19:28:48.505Z,100.00
2022-12-15T19:33:48.349Z,100.00
2022-12-15T19:38:48.739Z,100.00
2022-12-15T19:43:48.538Z,100.00
2022-12-15T19:48:48.699Z,100.00
2022-12-15T19:53:48.590Z,100.00
2022-12-15T19:58:48.598Z,100.00
2022-12-15T20:03:48.760Z,100.00
2022-12-15T20:08:48.495Z,100.00
2022-12-15T20:13:48.555Z,100.00
2022-12-15T20:18:49.733Z,100.00
2022-12-15T20:23:48.732Z,100.00
2022-12-15T20:28:48.384Z,100.00
2022-12-15T20:33:48.714Z,100.00
2022-12-15T20:38:49.154Z,100.00
2022-12-15T20:43:48.672Z,100.00
2022-12-15T20:48:48.804Z,100.00
2022-12-15T20:53:48.364Z,100.00
2022-12-15T20:58:48.566Z,100.00
2022-12-15T21:03:48.504Z,100.00
2022-12-15T21:08:48.523Z,100.00
2022-12-15T21:13:48.363Z,100.00
2022-12-15T21:19:19.905Z,100.00
2022-12-15T21:23:48.349Z,100.00
2022-12-15T21:28:48.379Z,100.00
2022-12-15T21:33:48.504Z,100.00
2022-12-15T21:38:48.377Z,100.00
2022-12-15T21:43:48.576Z,100.00
2022-12-15T21:48:48.356Z,100.00
2022-12-15T21:53:48.388Z,100.00
2022-12-15T21:58:48.381Z,100.00
2022-12-15T22:03:48.500Z,100.00
2022-12-15T22:08:48.403Z,100.00
2022-12-15T22:13:48.396Z,100.00
2022-12-15T22:18:48.487Z,100.00
2022-12-15T22:23:48.447Z,100.00
2022-12-15T22:28:48.559Z,100.00
2022-12-15T22:33:48.379Z,100.00
2022-12-15T22:38:48.406Z,100.00
2022-12-15T22:43:48.430Z,100.00
2022-12-15T22:48:48.385Z,100.00
2022-12-15T22:53:48.407Z,100.00
2022-12-15T22:58:48.392Z,100.00
2022-12-15T23:03:48.429Z,100.00
2022-12-15T23:08:52.478Z,100.00
2022-12-15T23:13:48.598Z,100.00
2022-12-15T23:18:48.440Z,100.00
2022-12-15T23:23:48.554Z,100.00
2022-12-15T23:28:48.448Z,100.00
2022-12-15T23:33:48.543Z,100.00
2022-12-15T23:38:48.425Z,100.00
2022-12-15T23:43:48.521Z,100.00
2022-12-15T23:48:48.409Z,100.00
2022-12-15T23:53:48.433Z,100.00
2022-12-15T23:58:48.528Z,100.00
